Terminal Aerodrome Forecast
Issued by NWS

Home | Current Version | Previous Version | Text Only | Print | Product List | Glossary On
Versions: 1 2 3 4 5 6 7 8 9 10 11 12 13 14 15 16 17 18 19 20 21 22 23 24 25 26 27 28 29 30 31
000
FTUS45 KBOU 240534
TAFBJC
TAF
KBJC 240534Z 2406/2506 23007KT P6SM FEW120 BKN200
     FM240900 29007KT P6SM FEW120 SCT200
     FM241900 30014KT P6SM SCT070 BKN160 PROB30 2421/2424 VRB25G35KT
      5SM TSRA BKN070CB
     FM250200 29012KT P6SM SCT080 BKN180
     FM250500 23010KT P6SM FEW100 SCT200=

USA.gov is the U.S. government's official web portal to all federal, state and local government web resources and services.